Colina, Chile
Current Conditions -  °F | °C
As of 8:00 AM on Thursday 30 Oct 2014 (Local Time) from SCEL Reporting Station
Broken Clouds Broken Clouds  
Wind Chill: 55°   Ceiling: 4000
Heat Index: 55°   Visibility: 6mi
Dew Point: 41°   Wind: 6mph
Humidity: 58%   Direction: 180°S
Pressure: 30.06"   Gusts: NA
Location:  33.2°S, 70.68°W
Report Text: SCEL 301200Z 18005KT 150V210 9999 BKN040 13/05 Q1018 NOSIG
Loading
Personal Weather Stations






























Interactive Weather Map
Tropical Storm Tracking
New forecast layout! Learn more

10-Day Weather Forecast

Advertisements
Track Severe Weather on mobile